Amargosa Valley, Nevada
Current Conditions -  °F | °C
As of 5:52 PM on Tuesday 21 Oct 2014 (Local Time) from KDRA Reporting Station
Clear Clear  
Wind Chill: 73°   Ceiling: Unl
Heat Index: 73°   Visibility: 10mi
Dew Point: 25°   Wind: 6mph
Humidity: 17%   Direction: 260°W
Pressure: 29.88"   Gusts: NA
Location:  36.64°N, 116.4°W
Report Text: KDRA 220052Z AUTO 26005KT 10SM CLR 23/M04 A2988 RMK AO2 SLP080 T02281039
Loading
Personal Weather Stations






























Interactive Weather Map
Tropical Storm Tracking
New forecast layout! Learn more

10-Day Weather Forecast

Advertisements
Track Severe Weather on mobile